Aérodrome :
LOGIN :

S'inscrire | Disclaimer

   EN    FR    IT 

 










Légende :    VFR   VFR Marginal   IFR   IFR Intensif   IFR Très Intensif
Visi : 
Plafond : 
>= 8 km
>= 3000ft
5 à 8 km
1000 à 3000 ft
1500m à 5 km
500 à 1000 ft
800 à 1500m
200 à 500 ft
< 800m
< 200 ft
Symboles :   Orages  Brouillard  Fortes neiges  Fortes précipitations  Vent > 20 kt
SIGMETs :   Divers  Orages  Givrage  Turbulence  Onde Orograph.  Cendres Volcan.






- Altitude de l'aérodrome : 218 ft
- Code IATA : LBG


LFPB - Paris / Le Bourget

DERNIER METAR :
  • 131100Z AUTO 26013KT 9999 BKN027/// BKN034/// OVC044/// ///TCU 07/04 Q0985 TEMPO 27025G40KT

METARs EXPIRÉS :
  • 131030Z AUTO 26016G31KT 9999 -RA FEW013/// BKN023/// BKN028/// ///CB 07/04 Q0985 NOSIG
  • 131000Z AUTO 26021G32KT 9999 FEW020/// SCT025/// BKN039/// ///CB 07/03 Q0984 TEMPO 3000 SHRA
  • 130930Z AUTO 25016KT 9999 FEW023/// BKN035/// BKN049/// ///CB 07/04 Q0983 TEMPO 3000 SHRA BECMG 27020G30KT
  • 130900Z AUTO 25016KT 9999 DZ BKN021/// BKN029/// OVC039/// ///TCU 06/04 Q0983 TEMPO 3000 SHRA SCT015CB BKN020 BECMG 27020G30KT
  • 130830Z AUTO 25017KT 9999 FEW021/// SCT027/// BKN038/// ///CB 06/03 Q0982 TEMPO 3000 SHRA BECMG 27020G30KT

TAF TAF LFPB
Valide du 13 à 06h jusqu'au 14 à 06h UTC


130500Z 1306/1406 27020G30KT 9999 BKN030
TEMPO 1306/1314 SCT015TCU
PROB30
TEMPO 1306/1311 3000 SHRA SCT015CB BKN020
TEMPO 1312/1315 27025G40KT
TEMPO 1320/1323 22015KT 3000 RA BKN012
PROB40
TEMPO 1401/1404 26025G45KT
ATIS : +33 1 48 62 43 92



MET'MAP, la Météo Aéronautique d'un coup d'oeil ! - Copyright ORBIFLY Décembre 2007 - Disclaimer

ORBIFLY MET'MAP TEAM :

Programmation & Développement : Alexandra Zaïnal
Sur une idée originale de : Baudouin d'Aumeries
Assistance à la programmation : Marc-Olivier Méhu
Soutien technique & logistique : Manuel Goepfert

Contact : metmap@orbifly.com




SOURCES & CREDITS :

   NOAA